Time;durP1;ratioP1;P1;durP2;ratioP2;P2;SDS_P1;SDS_P2;PMS_P1;PMS_P2;Temp;Humidity;BMP_temperature;BMP_pressure;BME280_temperature;BME280_humidity;BME280_pressure;Samples;Min_cycle;Max_cycle;Signal;HPM_P1;HPM_P2
2024/01/27 00:00:26;;;;;;;54.38;29.77;;;;;;;7.41;100.00;99686.72;6313373;22;20037;-95
2024/01/27 00:02:52;;;;;;;60.65;30.92;;;;;;;7.52;100.00;99718.47;6313440;22;20030;-94
2024/01/27 00:05:18;;;;;;;59.10;30.02;;;;;;;7.31;100.00;99686.75;6313586;22;20512;-94
2024/01/27 00:07:45;;;;;;;56.28;29.20;;;;;;;7.51;100.00;99732.63;6314162;22;20016;-94
2024/01/27 00:10:11;;;;;;;56.83;29.45;;;;;;;7.73;100.00;99769.69;6313931;22;20019;-95
2024/01/27 00:12:37;;;;;;;61.70;30.83;;;;;;;7.30;100.00;99693.78;6312875;22;20426;-94
2024/01/27 00:15:03;;;;;;;57.63;30.30;;;;;;;7.68;100.00;99760.88;6313525;22;19999;-94
2024/01/27 00:17:29;;;;;;;55.85;30.05;;;;;;;7.69;100.00;99741.44;6313887;22;20030;-94
2024/01/27 00:19:55;;;;;;;67.20;34.42;;;;;;;7.12;100.00;99702.56;6313908;22;20011;-96
2024/01/27 00:22:21;;;;;;;60.10;31.92;;;;;;;7.37;100.00;99735.25;6314949;22;20026;-95
2024/01/27 00:24:48;;;;;;;69.35;32.78;;;;;;;7.49;100.00;99738.78;6313532;22;20034;-95
2024/01/27 00:27:14;;;;;;;60.83;31.60;;;;;;;7.33;100.00;99704.38;6313310;22;20069;-96
2024/01/27 00:29:40;;;;;;;59.72;31.88;;;;;;;7.53;100.00;99709.69;6313377;22;20023;-95
2024/01/27 00:32:06;;;;;;;65.15;32.80;;;;;;;7.19;100.00;99682.31;6313078;22;20026;-94
2024/01/27 00:34:33;;;;;;;58.88;31.20;;;;;;;7.38;100.00;99713.19;6314168;22;20041;-95
2024/01/27 00:36:58;;;;;;;60.00;32.80;;;;;;;7.26;100.00;99697.28;6315250;22;20046;-94
2024/01/27 00:39:24;;;;;;;64.50;30.83;;;;;;;7.35;100.00;99704.34;6313989;22;20445;-96
2024/01/27 00:41:54;;;;;;;59.47;31.60;;;;;;;7.70;100.00;99770.56;6313324;22;20452;-94
2024/01/27 00:44:20;;;;;;;58.35;31.58;;;;;;;7.19;100.00;99688.47;6312953;22;20105;-94
2024/01/27 00:46:46;;;;;;;65.00;34.17;;;;;;;7.36;100.00;99706.13;6312936;22;20457;-95
2024/01/27 00:49:12;;;;;;;57.80;31.55;;;;;;;7.31;100.00;99698.19;6312751;22;20106;-95
2024/01/27 00:51:39;;;;;;;59.78;30.65;;;;;;;7.58;100.00;99726.44;6314534;22;20030;-94
2024/01/27 00:54:05;;;;;;;63.92;29.77;;;;;;;7.42;100.00;99698.22;6314535;22;20043;-95
2024/01/27 00:56:32;;;;;;;61.20;34.10;;;;;;;7.31;100.00;99706.13;6312784;22;20000;-95
2024/01/27 00:58:59;;;;;;;63.35;30.30;;;;;;;7.49;100.00;99742.31;6313673;22;20011;-94
2024/01/27 01:01:25;;;;;;;58.05;29.20;;;;;;;7.48;100.00;99732.63;6311504;22;20023;-94
2024/01/27 01:03:51;;;;;;;60.28;31.48;;;;;;;7.32;100.00;99705.25;6311705;22;20417;-95
2024/01/27 01:06:17;;;;;;;63.42;31.15;;;;;;;7.75;100.00;99771.44;6313107;22;20042;-95
2024/01/27 01:08:43;;;;;;;63.90;32.65;;;;;;;7.43;100.00;99715.84;6313125;22;20034;-96
2024/01/27 01:11:09;;;;;;;63.55;31.48;;;;;;;7.67;100.00;99769.69;6312137;22;20022;-95
2024/01/27 01:13:35;;;;;;;67.65;33.80;;;;;;;7.59;100.00;99759.09;6311719;22;20046;-95
2024/01/27 01:16:03;;;;;;;60.78;33.10;;;;;;;7.61;100.00;99760.88;6311779;22;20015;-94
2024/01/27 01:18:29;;;;;;;60.55;32.15;;;;;;;7.44;100.00;99732.59;6312833;22;20015;-95
2024/01/27 01:20:55;;;;;;;63.65;30.58;;;;;;;7.53;100.00;99754.66;6313427;22;20073;-95
2024/01/27 01:23:21;;;;;;;62.08;31.63;;;;;;;7.28;100.00;99715.81;6313793;22;20027;-94
2024/01/27 01:25:47;;;;;;;60.90;31.90;;;;;;;7.60;100.00;99753.78;6313474;22;20445;-96
2024/01/27 01:28:16;;;;;;;58.08;32.03;;;;;;;7.34;100.00;99718.47;6313312;22;20026;-94
2024/01/27 01:30:42;;;;;;;55.55;29.95;;;;;;;7.25;100.00;99702.59;6312478;22;20023;-94
2024/01/27 01:33:10;;;;;;;59.97;31.13;;;;;;;7.57;100.00;99763.50;6313215;22;20468;-96
2024/01/27 01:35:37;;;;;;;57.55;30.88;;;;;;;7.39;100.00;99744.09;6312117;22;20045;-95
2024/01/27 01:38:03;;;;;;;58.33;30.23;;;;;;;7.35;100.00;99730.81;6312064;22;20435;-94
2024/01/27 01:40:32;;;;;;;60.75;31.55;;;;;;;7.22;100.00;99715.81;6312057;22;20043;-95
2024/01/27 01:42:58;;;;;;;59.35;29.80;;;;;;;7.55;100.00;99768.78;6312962;22;20044;-94
2024/01/27 01:45:24;;;;;;;57.05;29.13;;;;;;;7.33;100.00;99735.22;6311972;22;20026;-95
2024/01/27 01:47:50;;;;;;;63.38;31.90;;;;;;;7.61;100.00;99783.78;6311424;22;20019;-95
2024/01/27 01:50:18;;;;;;;56.45;30.55;;;;;;;7.59;100.00;99773.22;6311727;22;20106;-95
2024/01/27 01:52:44;;;;;;;54.10;30.17;;;;;;;7.29;100.00;99709.66;6314085;22;20533;-95
2024/01/27 01:55:10;;;;;;;63.60;31.52;;;;;;;7.24;100.00;99706.13;6313032;22;20076;-95
2024/01/27 01:57:36;;;;;;;59.05;30.60;;;;;;;7.17;100.00;99694.66;6313339;22;20086;-96
2024/01/27 02:00:03;;;;;;;58.60;31.77;;;;;;;7.35;100.00;99728.16;6313080;22;20148;-94
2024/01/27 02:02:29;;;;;;;59.67;32.47;;;;;;;7.16;100.00;99692.91;6312675;22;20072;-95
2024/01/27 02:04:54;;;;;;;65.93;31.85;;;;;;;7.40;100.00;99739.66;6313157;22;20019;-95
2024/01/27 02:07:22;;;;;;;63.72;32.38;;;;;;;7.37;100.00;99723.75;6313267;22;20015;-94
2024/01/27 02:09:48;;;;;;;61.58;31.67;;;;;;;7.26;100.00;99718.47;6313902;22;20007;-94
2024/01/27 02:12:14;;;;;;;59.92;31.77;;;;;;;7.36;100.00;99729.94;6312754;22;20323;-95
2024/01/27 02:14:39;;;;;;;58.97;32.05;;;;;;;7.53;100.00;99761.75;6313351;22;20119;-95
2024/01/27 02:17:05;;;;;;;56.95;29.42;;;;;;;7.65;100.00;99768.78;6314326;22;20019;-95
2024/01/27 02:19:31;;;;;;;55.92;30.15;;;;;;;7.16;100.00;99708.75;6315387;22;20081;-95
2024/01/27 02:21:57;;;;;;;59.92;29.02;;;;;;;7.43;100.00;99729.06;6314981;22;20020;-96
2024/01/27 02:24:27;;;;;;;37.28;19.73;;;;;;;7.22;100.00;99692.00;6314328;22;20029;-95
2024/01/27 02:26:52;;;;;;;49.88;25.55;;;;;;;7.63;100.00;99779.38;6313249;22;20441;-95
2024/01/27 02:29:19;;;;;;;55.63;30.05;;;;;;;7.24;100.00;99709.63;6313440;22;20011;-93
2024/01/27 02:31:45;;;;;;;57.03;29.02;;;;;;;7.28;100.00;99703.47;6311488;22;20023;-96
2024/01/27 02:34:11;;;;;;;50.13;29.70;;;;;;;7.40;100.00;99732.59;6311375;22;20323;-95
2024/01/27 02:36:37;;;;;;;62.45;31.20;;;;;;;7.38;100.00;99725.53;6312291;22;20445;-95
2024/01/27 02:39:03;;;;;;;57.38;31.42;;;;;;;7.46;100.00;99741.41;6311364;22;20110;-95
2024/01/27 02:41:35;;;;;;;57.60;30.02;;;;;;;7.22;100.00;99692.00;6311800;22;20114;-95
2024/01/27 02:44:01;;;;;;;63.33;30.25;;;;;;;7.23;100.00;99694.66;6311880;22;20023;-94
2024/01/27 02:46:27;;;;;;;63.58;32.95;;;;;;;7.11;100.00;99698.19;6311389;22;20098;-95
2024/01/27 02:48:52;;;;;;;60.30;27.58;;;;;;;7.51;100.00;99748.50;6311760;22;20319;-95
2024/01/27 02:51:20;;;;;;;16.13;7.43;;;;;;;7.31;100.00;99710.56;6311964;22;20019;-96
2024/01/27 02:53:46;;;;;;;16.50;8.90;;;;;;;7.31;100.00;99703.50;6312498;22;20023;-95
2024/01/27 02:56:12;;;;;;;14.52;6.15;;;;;;;7.44;100.00;99699.09;6312529;22;20417;-94
2024/01/27 02:58:41;;;;;;;10.27;5.05;;;;;;;7.97;100.00;99760.84;6313029;22;20011;-95
2024/01/27 03:01:07;;;;;;;41.33;21.92;;;;;;;7.58;100.00;99691.16;6311639;22;20114;-95
2024/01/27 03:03:33;;;;;;;48.85;26.05;;;;;;;7.60;100.00;99699.97;6311616;22;20019;-96
2024/01/27 03:05:58;;;;;;;50.05;26.73;;;;;;;7.92;100.00;99752.03;6313173;22;20133;-94
2024/01/27 03:08:24;;;;;;;58.55;27.88;;;;;;;7.58;100.00;99697.31;6313393;22;20437;-94
2024/01/27 03:10:50;;;;;;;55.35;29.23;;;;;;;7.50;100.00;99708.78;6313466;22;20015;-96
2024/01/27 03:13:16;;;;;;;56.67;29.60;;;;;;;7.94;100.00;99774.13;6313964;22;20030;-95
2024/01/27 03:15:44;;;;;;;19.80;9.40;;;;;;;7.80;100.00;99752.91;6313721;22;20322;-96
2024/01/27 03:18:10;;;;;;;26.98;12.98;;;;;;;7.58;100.00;99707.91;6313641;22;20023;-94
2024/01/27 03:20:36;;;;;;;17.63;8.60;;;;;;;7.72;100.00;99712.31;6313619;22;20098;-96
2024/01/27 03:23:01;;;;;;;16.25;8.38;;;;;;;7.84;100.00;99729.97;6313417;22;20015;-94
2024/01/27 03:25:27;;;;;;;19.75;9.73;;;;;;;7.73;100.00;99695.56;6313963;22;20130;-94
2024/01/27 03:27:53;;;;;;;12.27;6.25;;;;;;;8.03;100.00;99755.56;6315881;22;20023;-95
2024/01/27 03:30:19;;;;;;;12.70;5.20;;;;;;;7.78;100.00;99744.09;6315335;22;20027;-94
2024/01/27 03:32:47;;;;;;;10.85;5.28;;;;;;;7.22;100.00;99662.91;6315315;22;20019;-96
2024/01/27 03:35:12;;;;;;;12.55;6.13;;;;;;;7.72;100.00;99733.47;6316739;22;20106;-95
2024/01/27 03:37:38;;;;;;;13.35;5.22;;;;;;;7.36;100.00;99677.91;6316689;22;20015;-94
2024/01/27 03:40:06;;;;;;;11.40;5.20;;;;;;;7.31;100.00;99682.31;6315524;22;20072;-94
2024/01/27 03:42:32;;;;;;;9.65;4.85;;;;;;;7.29;100.00;99672.63;6316719;22;20023;-96
2024/01/27 03:44:58;;;;;;;9.95;5.28;;;;;;;7.22;100.00;99668.19;6317008;22;20396;-96
2024/01/27 03:47:23;;;;;;;12.10;4.70;;;;;;;7.38;100.00;99714.97;6315737;22;20428;-96
2024/01/27 03:49:51;;;;;;;11.80;5.70;;;;;;;7.24;100.00;99691.13;6317204;22;20234;-96
2024/01/27 03:52:17;;;;;;;11.48;5.38;;;;;;;7.43;100.00;99705.25;6317988;22;20025;-95
2024/01/27 03:54:43;;;;;;;10.02;5.18;;;;;;;7.30;100.00;99671.72;6317136;22;20023;-95
2024/01/27 03:57:09;;;;;;;12.90;4.25;;;;;;;7.32;100.00;99681.44;6317128;22;20023;-94
2024/01/27 03:59:34;;;;;;;12.90;5.78;;;;;;;7.29;100.00;99684.09;6314649;22;20019;-94
2024/01/27 04:02:00;;;;;;;10.35;4.28;;;;;;;7.16;100.00;99685.84;6315072;22;20097;-95
2024/01/27 04:04:26;;;;;;;10.95;4.82;;;;;;;6.94;100.00;99671.69;6315351;22;20019;-96
2024/01/27 04:06:54;;;;;;;9.13;4.32;;;;;;;6.91;100.00;99679.59;6315945;22;20045;-95
2024/01/27 04:09:20;;;;;;;10.73;4.93;;;;;;;6.94;100.00;99678.72;6315785;22;20023;-95
2024/01/27 04:11:45;;;;;;;8.93;4.50;;;;;;;7.16;100.00;99699.06;6316487;22;20423;-95
2024/01/27 04:14:11;;;;;;;10.23;5.18;;;;;;;7.27;100.00;99719.38;6315656;22;20157;-96
2024/01/27 04:16:40;;;;;;;10.05;5.32;;;;;;;7.01;100.00;99677.88;6316327;22;20015;-95
2024/01/27 04:19:06;;;;;;;9.07;4.25;;;;;;;6.97;100.00;99655.81;6315870;22;20019;-95
2024/01/27 04:21:32;;;;;;;12.15;4.97;;;;;;;7.19;100.00;99682.31;6315772;22;20024;-95
2024/01/27 04:23:59;;;;;;;11.50;4.63;;;;;;;7.28;100.00;99678.78;6318158;22;20029;-95
2024/01/27 04:26:25;;;;;;;11.95;4.68;;;;;;;7.40;100.00;99674.38;6318592;22;20107;-94
2024/01/27 04:28:51;;;;;;;9.60;3.63;;;;;;;7.23;100.00;99643.53;6317342;22;20015;-94
2024/01/27 04:31:17;;;;;;;11.75;4.55;;;;;;;7.60;100.00;99698.19;6315481;22;20081;-95
2024/01/27 04:33:43;;;;;;;10.20;4.30;;;;;;;7.28;100.00;99636.44;6317459;22;20106;-94
2024/01/27 04:36:10;;;;;;;10.00;4.30;;;;;;;7.16;100.00;99613.53;6317779;22;20003;-95
2024/01/27 04:38:36;;;;;;;11.98;4.25;;;;;;;7.43;100.00;99676.16;6316651;22;20078;-95
2024/01/27 04:41:03;;;;;;;11.40;4.15;;;;;;;6.94;100.00;99615.25;6317525;22;20026;-94
2024/01/27 04:43:29;;;;;;;9.82;4.43;;;;;;;6.99;100.00;99626.75;6317773;22;20026;-96
2024/01/27 04:45:55;;;;;;;12.07;5.30;;;;;;;7.10;100.00;99645.28;6316954;22;20019;-96
2024/01/27 04:48:21;;;;;;;10.60;4.78;;;;;;;7.05;100.00;99666.44;6318211;22;20084;-94
2024/01/27 04:50:48;;;;;;;9.98;4.85;;;;;;;6.90;100.00;99648.78;6318503;22;20015;-96
2024/01/27 04:53:14;;;;;;;11.80;4.88;;;;;;;6.87;100.00;99659.31;6316883;22;20436;-94
2024/01/27 04:55:40;;;;;;;10.38;4.95;;;;;;;6.75;100.00;99652.25;6317150;22;20026;-94
2024/01/27 04:58:12;;;;;;;12.00;5.00;;;;;;;6.90;100.00;99677.84;6317072;22;20019;-95
2024/01/27 05:00:38;;;;;;;8.68;4.10;;;;;;;7.21;100.00;99728.16;6316981;22;20026;-95
2024/01/27 05:03:07;;;;;;;13.25;4.03;;;;;;;6.87;100.00;99692.81;6315423;22;20023;-95
2024/01/27 05:05:33;;;;;;;12.73;5.43;;;;;;;6.75;100.00;99661.94;6315270;22;20015;-93
2024/01/27 05:07:58;;;;;;;10.65;4.43;;;;;;;6.91;100.00;99684.00;6314609;22;20019;-95
2024/01/27 05:10:25;;;;;;;8.20;4.30;;;;;;;6.71;100.00;99666.34;6314986;22;20348;-95
2024/01/27 05:12:51;;;;;;;9.75;4.35;;;;;;;6.88;100.00;99707.81;6313904;22;20106;-94
2024/01/27 05:15:19;;;;;;;13.40;4.85;;;;;;;6.90;100.00;99704.28;6312842;22;20015;-95
2024/01/27 05:17:45;;;;;;;8.88;4.47;;;;;;;6.62;100.00;99663.69;6315734;22;20015;-95
2024/01/27 05:20:11;;;;;;;9.57;4.70;;;;;;;6.56;100.00;99685.66;6315800;22;20026;-94
2024/01/27 05:22:37;;;;;;;9.30;3.90;;;;;;;6.55;100.00;99686.56;6315040;22;20041;-95
2024/01/27 05:25:06;;;;;;;11.10;4.35;;;;;;;6.52;100.00;99661.88;6315395;22;20015;-95
2024/01/27 05:27:32;;;;;;;11.65;4.70;;;;;;;6.49;100.00;99665.38;6315824;22;20114;-94
2024/01/27 05:29:58;;;;;;;8.98;5.32;;;;;;;6.72;100.00;99725.38;6314872;22;20019;-95
2024/01/27 05:32:25;;;;;;;10.00;4.18;;;;;;;6.51;100.00;99691.84;6314901;22;20027;-95
2024/01/27 05:34:51;;;;;;;10.80;4.35;;;;;;;6.54;100.00;99687.41;6313772;22;20467;-95
2024/01/27 05:37:17;;;;;;;11.13;4.95;;;;;;;6.60;100.00;99712.13;6313549;22;20027;-95
2024/01/27 05:39:43;;;;;;;9.18;4.53;;;;;;;6.59;100.00;99732.34;6313463;22;20019;-95
2024/01/27 05:42:08;;;;;;;10.57;4.13;;;;;;;6.27;100.00;99697.88;6311679;22;20023;-95
2024/01/27 05:44:34;;;;;;;19.42;7.22;;;;;;;6.25;100.00;99716.34;6312554;22;20023;-95
2024/01/27 05:47:00;;;;;;;10.20;5.07;;;;;;;6.06;100.00;99696.00;6312865;22;20023;-94
2024/01/27 05:49:28;;;;;;;16.02;5.35;;;;;;;6.38;100.00;99780.72;6312726;22;20019;-93
2024/01/27 05:51:53;;;;;;;10.18;3.90;;;;;;;6.21;100.00;99772.69;6313240;22;20356;-95
2024/01/27 05:54:19;;;;;;;9.60;4.47;;;;;;;5.85;100.00;99725.72;6314252;22;20015;-96
2024/01/27 05:56:45;;;;;;;7.00;3.67;;;;;;;5.68;100.00;99742.34;6313168;22;20043;-95
2024/01/27 05:59:11;;;;;;;10.90;4.43;;;;;;;5.52;100.00;99708.78;6314753;22;20022;-94
2024/01/27 06:01:37;;;;;;;14.80;4.70;;;;;;;5.53;100.00;99735.19;6313002;22;20019;-94
2024/01/27 06:04:03;;;;;;;10.68;5.10;;;;;;;5.70;100.00;99780.19;6313685;22;20003;-95
2024/01/27 06:06:30;;;;;;;9.25;4.18;;;;;;;5.31;100.00;99710.38;6315170;22;20030;-94
2024/01/27 06:08:56;;;;;;;8.82;4.40;;;;;;;5.65;100.00;99783.63;6313630;22;20019;-94
2024/01/27 06:11:25;;;;;;;7.57;3.97;;;;;;;5.23;100.00;99726.97;6312581;22;20110;-95
2024/01/27 06:13:51;;;;;;;14.63;5.05;;;;;;;5.35;100.00;99764.00;6315256;22;20433;-96
2024/01/27 06:16:19;;;;;;;12.15;6.15;;;;;;;5.60;100.00;99783.59;6313092;22;20043;-94
2024/01/27 06:18:44;;;;;;;11.77;5.32;;;;;;;5.65;100.00;99767.81;6315317;22;20019;-94
2024/01/27 06:21:10;;;;;;;16.00;6.50;;;;;;;5.53;100.00;99731.63;6315448;22;20029;-94
2024/01/27 06:23:38;;;;;;;12.18;5.78;;;;;;;5.61;100.00;99722.03;6316127;22;20106;-94
2024/01/27 06:26:05;;;;;;;11.88;5.93;;;;;;;5.90;100.00;99742.50;6316766;22;20019;-95
2024/01/27 06:28:31;;;;;;;12.73;5.43;;;;;;;5.72;100.00;99707.16;6315212;22;20030;-94
2024/01/27 06:30:57;;;;;;;13.40;5.13;;;;;;;6.02;100.00;99752.28;6313299;22;20050;-93
2024/01/27 06:33:23;;;;;;;9.85;4.35;;;;;;;5.85;100.00;99742.44;6312592;22;20073;-94
2024/01/27 06:35:49;;;;;;;10.30;5.35;;;;;;;5.62;100.00;99730.84;6310870;22;20024;-93
2024/01/27 06:38:15;;;;;;;17.83;8.50;;;;;;;5.94;100.00;99821.78;6313017;22;20015;-94
2024/01/27 06:40:42;;;;;;;19.75;8.80;;;;;;;5.76;100.00;99808.38;6312392;22;20023;-94
2024/01/27 06:43:10;;;;;;;16.23;6.35;;;;;;;5.66;100.00;99803.88;6314149;22;20349;-95
2024/01/27 06:45:36;;;;;;;12.25;5.63;;;;;;;5.83;100.00;99833.94;6314029;22;20039;-94
2024/01/27 06:48:03;;;;;;;18.95;7.57;;;;;;;5.34;100.00;99755.22;6315264;22;20006;-94
2024/01/27 06:50:54;;;;;;;12.82;5.55;;;;;;;5.67;100.00;99837.31;6315889;22;20015;-94
2024/01/27 06:53:29;;;;;;;14.65;7.70;;;;;;;5.08;100.00;99752.31;6317387;22;20019;-95
2024/01/27 06:56:20;;;;;;;15.55;6.57;;;;;;;5.08;100.00;99756.72;6325268;22;20012;-95
2024/01/27 06:59:01;;;;;;;15.60;6.97;;;;;;;5.00;100.00;99759.25;6323035;22;20034;-95
2024/01/27 07:01:29;;;;;;;15.05;7.72;;;;;;;4.94;100.00;99749.53;6322017;22;20082;-96
2024/01/27 07:03:55;;;;;;;16.25;6.70;;;;;;;5.19;100.00;99773.53;6322287;22;20325;-95
2024/01/27 07:06:21;;;;;;;13.52;6.07;;;;;;;5.26;100.00;99769.19;6323143;22;20122;-96
2024/01/27 07:08:47;;;;;;;16.48;7.07;;;;;;;5.39;100.00;99780.75;6320100;22;20025;-95
2024/01/27 07:11:35;;;;;;;21.17;10.25;;;;;;;5.35;100.00;99778.06;6327786;22;19999;-95
2024/01/27 07:14:20;;;;;;;;;;;;;;;5.91;100.00;99856.00;6327993;22;20030;-94
2024/01/27 07:16:56;;;;;;;19.13;8.32;;;;;;;5.65;100.00;99802.09;6325697;22;19915;-94
2024/01/27 07:19:22;;;;;;;15.40;6.75;;;;;;;5.90;100.00;99814.66;6327951;22;20015;-95
2024/01/27 07:22:03;;;;;;;11.32;5.13;;;;;;;6.14;100.00;99773.53;6329314;22;20019;-94
2024/01/27 07:24:37;;;;;;;14.85;5.95;;;;;;;6.71;100.00;99830.22;6324216;22;20019;-94
2024/01/27 07:27:04;;;;;;;12.15;5.85;;;;;;;6.74;100.00;99780.03;6318849;22;20019;-94
2024/01/27 07:29:39;;;;;;;13.00;5.43;;;;;;;7.10;100.00;99815.41;6325512;22;20041;-96
2024/01/27 07:32:08;;;;;;;11.15;5.75;;;;;;;7.27;100.00;99819.91;6325871;22;20010;-96
2024/01/27 07:34:34;;;;;;;13.18;5.90;;;;;;;7.12;100.00;99762.53;6320666;22;19999;-95
2024/01/27 07:37:00;;;;;;;13.02;5.50;;;;;;;7.51;100.00;99832.31;6320455;22;20021;-95
2024/01/27 07:39:26;;;;;;;10.38;4.82;;;;;;;7.52;100.00;99820.81;6320348;22;20019;-95
2024/01/27 07:41:52;;;;;;;11.80;5.40;;;;;;;7.41;100.00;99781.09;6323244;22;20024;-96
2024/01/27 07:44:19;;;;;;;10.90;4.45;;;;;;;7.79;100.00;99833.25;6323489;22;20049;-94
2024/01/27 07:46:46;;;;;;;14.07;5.35;;;;;;;7.94;100.00;99853.56;6325161;22;20019;-95
2024/01/27 07:49:12;;;;;;;10.45;3.92;;;;;;;7.60;100.00;99769.66;6322197;22;20072;-95
2024/01/27 07:51:39;;;;;;;8.50;3.88;;;;;;;8.06;100.00;99837.66;6323070;22;20019;-95
2024/01/27 07:54:05;;;;;;;11.98;5.50;;;;;;;7.90;100.00;99789.09;6320930;22;20078;-95
2024/01/27 07:56:34;;;;;;;16.85;8.85;;;;;;;7.96;100.00;99807.66;6322058;22;20015;-95
2024/01/27 07:59:03;;;;;;;21.67;9.63;;;;;;;7.99;100.00;99828.84;6317794;22;20015;-95
2024/01/27 08:01:30;;;;;;;20.85;11.55;;;;;;;7.93;100.00;99823.53;6311375;22;20027;-95
2024/01/27 08:03:56;;;;;;;33.53;14.90;;;;;;;8.06;100.00;99847.38;6310959;22;20131;-94
2024/01/27 08:06:29;;;;;;;34.00;15.25;;;;;;;7.89;100.00;99818.22;6311631;22;20054;-93
2024/01/27 08:08:55;;;;;;;29.80;15.75;;;;;;;7.68;100.00;99787.34;6313915;22;20456;-95
2024/01/27 08:11:20;;;;;;;26.85;14.80;;;;;;;7.98;100.00;99827.09;6312528;22;20016;-94
2024/01/27 08:13:46;;;;;;;29.65;16.08;;;;;;;7.86;100.00;99792.63;6311369;22;20039;-96
2024/01/27 08:16:13;;;;;;;31.67;16.83;;;;;;;8.19;100.00;99834.13;6313199;22;20015;-95
2024/01/27 08:18:44;;;;;;;31.92;15.82;;;;;;;8.40;100.00;99849.16;6315090;22;20023;-96
2024/01/27 08:21:11;;;;;;;26.48;14.50;;;;;;;8.52;100.00;99853.59;6310642;22;20003;-94
2024/01/27 08:23:37;;;;;;;29.67;12.35;;;;;;;8.51;100.00;99837.69;6310531;22;20042;-94
2024/01/27 08:26:07;;;;;;;27.05;13.05;;;;;;;8.80;100.00;99866.78;6317023;22;20381;-95
2024/01/27 08:28:33;;;;;;;25.38;13.02;;;;;;;8.80;100.00;99864.13;6324805;22;20026;-95
2024/01/27 08:30:59;;;;;;;27.27;13.15;;;;;;;8.72;100.00;99840.28;6315417;22;20047;-95
2024/01/27 08:33:25;;;;;;;25.17;13.57;;;;;;;8.93;100.00;99870.28;6324636;22;20015;-94
2024/01/27 08:42:39;;;;;;;25.67;12.40;;;;;;;8.81;100.00;99824.34;6263060;22;20121;-95
2024/01/27 08:45:06;;;;;;;21.45;12.23;;;;;;;9.07;100.00;99873.78;6260716;22;20058;-93
2024/01/27 08:47:32;;;;;;;28.33;13.98;;;;;;;9.12;100.00;99877.31;6253601;22;20091;-93
2024/01/27 08:49:58;;;;;;;24.83;13.50;;;;;;;8.74;100.00;99817.31;6253100;22;20044;-95
2024/01/27 08:52:23;;;;;;;27.35;14.00;;;;;;;9.12;100.00;99874.66;6255838;22;20024;-93
2024/01/27 08:54:49;;;;;;;22.70;12.05;;;;;;;9.01;100.00;99837.53;6255568;22;20007;-94
2024/01/27 08:57:15;;;;;;;23.38;11.93;;;;;;;9.08;100.00;99821.59;6255478;22;20020;-94
2024/01/27 08:59:43;;;;;;;23.60;11.75;;;;;;;9.57;100.00;99899.25;6258207;22;20438;-94
2024/01/27 09:02:09;;;;;;;19.98;11.70;;;;;;;9.36;100.00;99856.84;6258930;22;20015;-94
2024/01/27 09:04:35;;;;;;;26.67;11.65;;;;;;;9.66;100.00;99885.91;6259326;22;20037;-95
2024/01/27 09:07:00;;;;;;;20.38;11.25;;;;;;;9.78;100.00;99894.69;6258042;22;20039;-94
2024/01/27 09:09:26;;;;;;;24.52;11.68;;;;;;;9.56;100.00;99849.66;6279282;22;20345;-94
2024/01/27 09:11:52;;;;;;;21.00;11.32;;;;;;;9.94;100.00;99899.03;6314135;22;20020;-94
2024/01/27 09:14:18;;;;;;;26.10;13.05;;;;;;;9.71;100.00;99864.63;6316485;22;20050;-95
2024/01/27 09:16:47;;;;;;;26.42;13.23;;;;;;;9.69;100.00;99846.94;6315920;22;20353;-93
2024/01/27 09:19:12;;;;;;;27.13;14.13;;;;;;;9.83;100.00;99839.78;6315772;22;20405;-95
2024/01/27 09:21:40;;;;;;;25.55;13.60;;;;;;;9.85;100.00;99843.31;6316596;22;20022;-95
2024/01/27 09:24:07;;;;;;;21.80;11.68;;;;;;;10.00;100.00;99906.97;6312765;22;20040;-95
2024/01/27 09:26:33;;;;;;;25.45;11.73;;;;;;;9.81;100.00;99922.13;6313437;22;20015;-95
2024/01/27 09:29:08;;;;;;;23.48;11.07;;;;;;;9.86;100.00;99888.44;6313207;22;20098;-93
2024/01/27 09:31:33;;;;;;;26.83;11.32;;;;;;;9.53;100.00;99852.34;6311886;22;20031;-94
2024/01/27 09:34:01;;;;;;;21.83;12.15;;;;;;;9.80;100.00;99888.50;6309667;22;20019;-95
2024/01/27 09:36:27;;;;;;;23.45;13.35;;;;;;;9.89;100.00;99884.91;6311004;22;20026;-95
2024/01/27 09:38:57;;;;;;;21.63;11.25;;;;;;;9.75;100.00;99844.25;6310439;22;20022;-94
2024/01/27 09:41:22;;;;;;;27.58;12.60;;;;;;;10.26;100.00;99912.09;6311508;22;20389;-96
2024/01/27 09:43:48;;;;;;;24.65;12.10;;;;;;;10.18;100.00;99866.06;6309320;22;20019;-95
2024/01/27 09:46:15;;;;;;;22.55;11.00;;;;;;;10.34;100.00;99864.19;6310194;22;20019;-94
2024/01/27 09:48:42;;;;;;;21.88;11.50;;;;;;;10.50;100.00;99872.06;6311124;22;20023;-94
2024/01/27 09:51:10;;;;;;;21.13;10.32;;;;;;;10.53;100.00;99864.94;6310106;22;20034;-95
2024/01/27 09:53:37;;;;;;;22.90;10.90;;;;;;;10.61;100.00;99856.88;6310677;22;20069;-94
2024/01/27 09:56:03;;;;;;;22.60;11.60;;;;;;;10.98;100.00;99909.72;6310636;22;20019;-94
2024/01/27 09:58:30;;;;;;;28.10;11.35;;;;;;;11.14;100.00;99921.97;6310244;22;20357;-94
2024/01/27 10:00:58;;;;;;;19.20;10.55;;;;;;;11.09;100.00;99889.19;6310302;22;20019;-95
2024/01/27 10:03:26;;;;;;;18.40;10.18;;;;;;;11.43;100.00;99932.28;6311465;22;20033;-94
2024/01/27 10:05:52;;;;;;;23.13;10.70;;;;;;;10.95;100.00;99913.31;6311557;22;20069;-93
2024/01/27 10:08:20;;;;;;;22.05;11.05;;;;;;;10.96;100.00;99869.81;6309372;22;20075;-93
2024/01/27 10:10:46;;;;;;;20.08;10.38;;;;;;;11.27;100.00;99930.69;6310473;22;20022;-95
2024/01/27 10:13:17;;;;;;;18.63;10.15;;;;;;;10.94;100.00;99913.31;6309780;22;20015;-94
2024/01/27 10:15:43;;;;;;;21.52;10.40;;;;;;;11.22;100.00;99914.78;6309580;22;20536;-95
2024/01/27 10:18:12;;;;;;;23.15;9.90;;;;;;;11.15;100.00;99870.50;6310227;22;20050;-95
2024/01/27 10:20:38;;;;;;;;;;;;;;;11.60;100.00;99924.09;6309911;22;20068;-95
2024/01/27 10:23:11;;;;;;;21.02;10.63;;;;;;;11.45;100.00;99902.97;6309620;22;20273;-94
2024/01/27 10:25:39;;;;;;;22.65;10.60;;;;;;;11.25;100.00;99853.47;6309289;22;20026;-94
2024/01/27 10:28:07;;;;;;;19.08;9.85;;;;;;;11.55;100.00;99883.28;6309937;22;20006;-95
2024/01/27 10:30:33;;;;;;;21.75;10.75;;;;;;;11.71;100.00;99884.00;6309609;22;20023;-95
2024/01/27 10:32:59;;;;;;;23.48;11.45;;;;;;;11.76;100.00;99879.47;6308991;22;20518;-94
2024/01/27 10:35:25;;;;;;;27.92;11.82;;;;;;;11.79;100.00;99900.72;6309805;22;20015;-95
2024/01/27 10:37:52;;;;;;;20.05;11.18;;;;;;;11.57;100.00;99835.34;6311577;22;20468;-95
2024/01/27 10:40:18;;;;;;;22.00;10.80;;;;;;;11.86;100.00;99859.78;6311767;22;20018;-95
2024/01/27 10:42:46;;;;;;;20.25;10.30;;;;;;;11.82;100.00;99842.06;6311569;22;20019;-95
2024/01/27 10:45:13;;;;;;;19.58;10.13;;;;;;;11.79;100.00;99842.09;6312010;22;20436;-95
2024/01/27 10:47:39;;;;;;;21.42;10.02;;;;;;;11.76;100.00;99857.28;6311754;22;20069;-93
2024/01/27 10:50:11;;;;;;;19.70;10.20;;;;;;;12.03;100.00;99888.00;6313504;22;20019;-94
2024/01/27 10:52:41;;;;;;;20.63;10.80;;;;;;;11.83;100.00;99865.16;6312652;22;20011;-95
2024/01/27 10:55:09;;;;;;;21.50;10.45;;;;;;;11.65;100.00;99860.97;6312137;22;20437;-95
2024/01/27 10:57:36;;;;;;;18.85;10.02;;;;;;;11.72;100.00;99862.63;6311781;22;20019;-96
2024/01/27 11:00:08;;;;;;;19.23;10.55;;;;;;;11.62;100.00;99834.34;6311677;22;20019;-96
2024/01/27 11:02:35;;;;;;;22.75;10.73;;;;;;;11.70;100.00;99852.91;6311424;22;20015;-95
2024/01/27 11:05:03;;;;;;;21.70;11.00;;;;;;;11.72;100.00;99856.44;6312012;22;20015;-94
2024/01/27 11:07:32;;;;;;;20.83;10.52;;;;;;;11.91;100.00;99873.06;6311693;22;20019;-95
2024/01/27 11:09:58;;;;;;;20.70;9.90;;;;;;;11.72;100.00;99843.97;6312465;22;20019;-96
2024/01/27 11:12:25;;;;;;;22.13;10.13;;;;;;;11.57;100.00;99812.22;6311806;22;20026;-94
2024/01/27 11:14:51;;;;;;;18.35;10.45;;;;;;;11.61;100.00;99813.97;6312322;22;20114;-96
2024/01/27 11:17:19;;;;;;;21.10;11.02;;;;;;;11.84;100.00;99844.69;6312633;22;19999;-95
2024/01/27 11:19:46;;;;;;;22.58;9.98;;;;;;;11.94;100.00;99850.81;6311943;22;20047;-94
2024/01/27 11:22:25;;;;;;;19.00;11.02;;;;;;;11.72;100.00;99829.78;6311858;22;20031;-95
2024/01/27 11:24:51;;;;;;;21.95;10.68;;;;;;;11.65;100.00;99813.00;6311341;22;20379;-95
2024/01/27 11:27:18;;;;;;;23.70;12.43;;;;;;;11.98;100.00;99857.88;6310900;22;20047;-95